sensor_id;sensor_type;location;lat;lon;timestamp;P1;durP1;ratioP1;P2;durP2;ratioP2
43124;SDS011;49182;50.788;7.318;2023-02-21T00:00:25;25.83;;;12.75;;
43124;SDS011;49182;50.788;7.318;2023-02-21T00:02:52;23.65;;;11.85;;
43124;SDS011;49182;50.788;7.318;2023-02-21T00:05:20;21.48;;;11.20;;
43124;SDS011;49182;50.788;7.318;2023-02-21T00:07:47;24.48;;;11.60;;
43124;SDS011;49182;50.788;7.318;2023-02-21T00:10:14;24.02;;;12.15;;
43124;SDS011;49182;50.788;7.318;2023-02-21T00:12:41;24.58;;;11.30;;
43124;SDS011;49182;50.788;7.318;2023-02-21T00:15:08;25.00;;;12.27;;
43124;SDS011;49182;50.788;7.318;2023-02-21T00:17:34;21.42;;;11.70;;
43124;SDS011;49182;50.788;7.318;2023-02-21T00:20:01;23.27;;;11.45;;
43124;SDS011;49182;50.788;7.318;2023-02-21T00:22:29;28.80;;;11.98;;
43124;SDS011;49182;50.788;7.318;2023-02-21T00:24:55;22.23;;;12.20;;
43124;SDS011;49182;50.788;7.318;2023-02-21T00:27:23;27.83;;;12.98;;
43124;SDS011;49182;50.788;7.318;2023-02-21T00:29:50;24.35;;;12.73;;
43124;SDS011;49182;50.788;7.318;2023-02-21T00:32:17;23.73;;;12.00;;
43124;SDS011;49182;50.788;7.318;2023-02-21T00:34:44;23.05;;;10.65;;
43124;SDS011;49182;50.788;7.318;2023-02-21T00:37:10;23.92;;;11.88;;
43124;SDS011;49182;50.788;7.318;2023-02-21T00:39:39;24.75;;;12.77;;
43124;SDS011;49182;50.788;7.318;2023-02-21T00:42:05;25.55;;;12.50;;
43124;SDS011;49182;50.788;7.318;2023-02-21T00:44:32;28.65;;;11.35;;
43124;SDS011;49182;50.788;7.318;2023-02-21T00:46:58;26.33;;;11.73;;
43124;SDS011;49182;50.788;7.318;2023-02-21T00:49:25;23.58;;;12.00;;
43124;SDS011;49182;50.788;7.318;2023-02-21T00:51:52;26.55;;;13.02;;
43124;SDS011;49182;50.788;7.318;2023-02-21T00:54:19;22.58;;;11.32;;
43124;SDS011;49182;50.788;7.318;2023-02-21T00:56:46;25.13;;;11.73;;
43124;SDS011;49182;50.788;7.318;2023-02-21T00:59:14;24.98;;;12.80;;
43124;SDS011;49182;50.788;7.318;2023-02-21T01:01:41;23.98;;;11.80;;
43124;SDS011;49182;50.788;7.318;2023-02-21T01:04:07;22.48;;;11.38;;
43124;SDS011;49182;50.788;7.318;2023-02-21T01:06:34;23.67;;;11.70;;
43124;SDS011;49182;50.788;7.318;2023-02-21T01:09:01;23.58;;;11.90;;
43124;SDS011;49182;50.788;7.318;2023-02-21T01:11:27;22.15;;;11.27;;
43124;SDS011;49182;50.788;7.318;2023-02-21T01:13:55;21.67;;;11.85;;
43124;SDS011;49182;50.788;7.318;2023-02-21T01:16:22;27.35;;;12.73;;
43124;SDS011;49182;50.788;7.318;2023-02-21T01:18:49;22.30;;;11.48;;
43124;SDS011;49182;50.788;7.318;2023-02-21T01:21:16;23.42;;;11.15;;
43124;SDS011;49182;50.788;7.318;2023-02-21T01:23:43;21.38;;;11.02;;
43124;SDS011;49182;50.788;7.318;2023-02-21T01:26:10;25.60;;;11.60;;
43124;SDS011;49182;50.788;7.318;2023-02-21T01:28:37;22.95;;;11.23;;
43124;SDS011;49182;50.788;7.318;2023-02-21T01:31:05;21.45;;;10.30;;
43124;SDS011;49182;50.788;7.318;2023-02-21T01:33:33;25.73;;;11.43;;
43124;SDS011;49182;50.788;7.318;2023-02-21T01:36:03;25.10;;;12.80;;
43124;SDS011;49182;50.788;7.318;2023-02-21T01:38:31;23.63;;;11.38;;
43124;SDS011;49182;50.788;7.318;2023-02-21T01:40:59;22.83;;;11.00;;
43124;SDS011;49182;50.788;7.318;2023-02-21T01:43:26;24.05;;;11.32;;
43124;SDS011;49182;50.788;7.318;2023-02-21T01:45:53;25.58;;;11.30;;
43124;SDS011;49182;50.788;7.318;2023-02-21T01:48:22;23.17;;;11.38;;
43124;SDS011;49182;50.788;7.318;2023-02-21T01:50:50;24.20;;;11.55;;
43124;SDS011;49182;50.788;7.318;2023-02-21T01:53:19;22.75;;;10.57;;
43124;SDS011;49182;50.788;7.318;2023-02-21T01:55:49;21.75;;;11.13;;
43124;SDS011;49182;50.788;7.318;2023-02-21T01:58:16;22.60;;;11.05;;
43124;SDS011;49182;50.788;7.318;2023-02-21T02:00:46;23.25;;;11.52;;
43124;SDS011;49182;50.788;7.318;2023-02-21T02:03:14;25.52;;;11.13;;
43124;SDS011;49182;50.788;7.318;2023-02-21T02:05:45;21.92;;;11.00;;
43124;SDS011;49182;50.788;7.318;2023-02-21T02:10:42;20.45;;;10.10;;
43124;SDS011;49182;50.788;7.318;2023-02-21T02:13:15;23.92;;;11.75;;
43124;SDS011;49182;50.788;7.318;2023-02-21T02:15:56;22.23;;;11.38;;
43124;SDS011;49182;50.788;7.318;2023-02-21T02:18:36;28.02;;;11.23;;
43124;SDS011;49182;50.788;7.318;2023-02-21T02:24:27;24.80;;;12.10;;
43124;SDS011;49182;50.788;7.318;2023-02-21T02:33:03;21.98;;;11.30;;
43124;SDS011;49182;50.788;7.318;2023-02-21T02:38:22;27.08;;;11.02;;
43124;SDS011;49182;50.788;7.318;2023-02-21T02:40:56;22.65;;;11.82;;
43124;SDS011;49182;50.788;7.318;2023-02-21T02:43:28;24.40;;;11.90;;
43124;SDS011;49182;50.788;7.318;2023-02-21T02:45:59;24.88;;;11.73;;
43124;SDS011;49182;50.788;7.318;2023-02-21T02:48:30;21.60;;;10.95;;
43124;SDS011;49182;50.788;7.318;2023-02-21T02:51:01;24.15;;;11.38;;
43124;SDS011;49182;50.788;7.318;2023-02-21T02:53:31;23.20;;;11.43;;
43124;SDS011;49182;50.788;7.318;2023-02-21T02:55:59;27.55;;;11.82;;
43124;SDS011;49182;50.788;7.318;2023-02-21T02:58:30;25.08;;;11.85;;
43124;SDS011;49182;50.788;7.318;2023-02-21T03:01:06;20.98;;;10.82;;
43124;SDS011;49182;50.788;7.318;2023-02-21T03:03:51;24.75;;;11.68;;
43124;SDS011;49182;50.788;7.318;2023-02-21T03:06:34;23.35;;;11.15;;
43124;SDS011;49182;50.788;7.318;2023-02-21T03:09:13;25.45;;;12.65;;
43124;SDS011;49182;50.788;7.318;2023-02-21T03:11:47;26.73;;;10.88;;
43124;SDS011;49182;50.788;7.318;2023-02-21T03:14:21;21.00;;;10.75;;
43124;SDS011;49182;50.788;7.318;2023-02-21T03:16:56;22.77;;;11.00;;
43124;SDS011;49182;50.788;7.318;2023-02-21T03:19:30;24.25;;;10.77;;
43124;SDS011;49182;50.788;7.318;2023-02-21T03:22:01;23.30;;;10.85;;
43124;SDS011;49182;50.788;7.318;2023-02-21T03:24:32;24.20;;;11.80;;
43124;SDS011;49182;50.788;7.318;2023-02-21T03:27:01;21.83;;;11.30;;
43124;SDS011;49182;50.788;7.318;2023-02-21T03:29:52;22.43;;;11.13;;
43124;SDS011;49182;50.788;7.318;2023-02-21T03:32:24;25.45;;;10.88;;
43124;SDS011;49182;50.788;7.318;2023-02-21T03:34:55;21.67;;;10.82;;
43124;SDS011;49182;50.788;7.318;2023-02-21T03:37:29;20.63;;;10.70;;
43124;SDS011;49182;50.788;7.318;2023-02-21T03:39:57;25.33;;;11.65;;
43124;SDS011;49182;50.788;7.318;2023-02-21T03:42:25;22.75;;;10.80;;
43124;SDS011;49182;50.788;7.318;2023-02-21T03:44:52;23.25;;;11.20;;
43124;SDS011;49182;50.788;7.318;2023-02-21T03:47:19;21.58;;;11.10;;
43124;SDS011;49182;50.788;7.318;2023-02-21T03:49:46;23.75;;;11.15;;
43124;SDS011;49182;50.788;7.318;2023-02-21T03:52:13;24.63;;;11.60;;
43124;SDS011;49182;50.788;7.318;2023-02-21T03:54:41;20.85;;;11.75;;
43124;SDS011;49182;50.788;7.318;2023-02-21T03:57:11;24.13;;;11.88;;
43124;SDS011;49182;50.788;7.318;2023-02-21T03:59:41;23.13;;;10.82;;
43124;SDS011;49182;50.788;7.318;2023-02-21T04:02:08;20.40;;;9.88;;
43124;SDS011;49182;50.788;7.318;2023-02-21T04:04:35;23.38;;;10.52;;
43124;SDS011;49182;50.788;7.318;2023-02-21T04:07:06;27.13;;;11.73;;
43124;SDS011;49182;50.788;7.318;2023-02-21T04:09:33;29.30;;;12.27;;
43124;SDS011;49182;50.788;7.318;2023-02-21T04:12:01;21.17;;;10.82;;
43124;SDS011;49182;50.788;7.318;2023-02-21T04:14:29;22.95;;;10.98;;
43124;SDS011;49182;50.788;7.318;2023-02-21T04:16:56;19.80;;;10.77;;
43124;SDS011;49182;50.788;7.318;2023-02-21T04:19:24;22.65;;;11.13;;
43124;SDS011;49182;50.788;7.318;2023-02-21T04:21:51;23.02;;;10.70;;
43124;SDS011;49182;50.788;7.318;2023-02-21T04:24:18;20.58;;;11.15;;
43124;SDS011;49182;50.788;7.318;2023-02-21T04:26:45;19.38;;;10.25;;
43124;SDS011;49182;50.788;7.318;2023-02-21T04:29:13;24.52;;;10.90;;
43124;SDS011;49182;50.788;7.318;2023-02-21T04:31:40;22.65;;;11.05;;
43124;SDS011;49182;50.788;7.318;2023-02-21T04:34:14;23.40;;;11.27;;
43124;SDS011;49182;50.788;7.318;2023-02-21T04:36:42;22.55;;;10.52;;
43124;SDS011;49182;50.788;7.318;2023-02-21T04:39:09;20.55;;;11.35;;
43124;SDS011;49182;50.788;7.318;2023-02-21T04:41:36;25.05;;;11.32;;
43124;SDS011;49182;50.788;7.318;2023-02-21T04:44:03;22.13;;;11.13;;
43124;SDS011;49182;50.788;7.318;2023-02-21T04:46:33;23.35;;;11.43;;
43124;SDS011;49182;50.788;7.318;2023-02-21T04:49:00;21.90;;;10.32;;
43124;SDS011;49182;50.788;7.318;2023-02-21T04:51:27;25.73;;;11.93;;
43124;SDS011;49182;50.788;7.318;2023-02-21T04:53:54;25.00;;;12.25;;
43124;SDS011;49182;50.788;7.318;2023-02-21T04:56:22;22.92;;;10.77;;
43124;SDS011;49182;50.788;7.318;2023-02-21T04:58:50;26.40;;;11.50;;
43124;SDS011;49182;50.788;7.318;2023-02-21T05:01:17;22.45;;;11.70;;
43124;SDS011;49182;50.788;7.318;2023-02-21T05:03:46;24.27;;;11.05;;
43124;SDS011;49182;50.788;7.318;2023-02-21T05:06:16;25.30;;;11.27;;
43124;SDS011;49182;50.788;7.318;2023-02-21T05:08:43;27.27;;;11.50;;
43124;SDS011;49182;50.788;7.318;2023-02-21T05:11:10;27.45;;;13.20;;
43124;SDS011;49182;50.788;7.318;2023-02-21T05:13:36;27.92;;;11.85;;
43124;SDS011;49182;50.788;7.318;2023-02-21T05:16:03;26.10;;;11.48;;
43124;SDS011;49182;50.788;7.318;2023-02-21T05:18:30;22.00;;;10.23;;
43124;SDS011;49182;50.788;7.318;2023-02-21T05:20:58;24.73;;;11.30;;
43124;SDS011;49182;50.788;7.318;2023-02-21T05:23:25;26.13;;;12.15;;
43124;SDS011;49182;50.788;7.318;2023-02-21T05:25:52;25.70;;;10.52;;
43124;SDS011;49182;50.788;7.318;2023-02-21T05:28:18;23.45;;;11.48;;
43124;SDS011;49182;50.788;7.318;2023-02-21T05:30:45;22.02;;;11.45;;
43124;SDS011;49182;50.788;7.318;2023-02-21T05:33:11;27.48;;;11.57;;
43124;SDS011;49182;50.788;7.318;2023-02-21T05:35:38;23.75;;;11.77;;
43124;SDS011;49182;50.788;7.318;2023-02-21T05:38:06;23.08;;;10.63;;
43124;SDS011;49182;50.788;7.318;2023-02-21T05:40:32;21.52;;;10.18;;
43124;SDS011;49182;50.788;7.318;2023-02-21T05:42:59;22.13;;;11.55;;
43124;SDS011;49182;50.788;7.318;2023-02-21T05:45:25;20.05;;;10.90;;
43124;SDS011;49182;50.788;7.318;2023-02-21T05:47:52;24.38;;;12.20;;
43124;SDS011;49182;50.788;7.318;2023-02-21T05:50:18;25.08;;;12.35;;
43124;SDS011;49182;50.788;7.318;2023-02-21T05:52:45;29.25;;;12.43;;
43124;SDS011;49182;50.788;7.318;2023-02-21T05:55:13;24.52;;;11.43;;
43124;SDS011;49182;50.788;7.318;2023-02-21T05:57:40;27.40;;;12.55;;
43124;SDS011;49182;50.788;7.318;2023-02-21T06:00:11;23.80;;;11.90;;
43124;SDS011;49182;50.788;7.318;2023-02-21T06:02:41;27.15;;;11.48;;
43124;SDS011;49182;50.788;7.318;2023-02-21T06:05:07;29.75;;;12.57;;
43124;SDS011;49182;50.788;7.318;2023-02-21T06:07:34;21.27;;;11.23;;
43124;SDS011;49182;50.788;7.318;2023-02-21T06:10:00;27.45;;;12.18;;
43124;SDS011;49182;50.788;7.318;2023-02-21T06:12:28;22.65;;;10.82;;
43124;SDS011;49182;50.788;7.318;2023-02-21T06:14:55;31.08;;;12.32;;
43124;SDS011;49182;50.788;7.318;2023-02-21T06:17:22;24.63;;;11.38;;
43124;SDS011;49182;50.788;7.318;2023-02-21T06:19:48;25.25;;;12.07;;
43124;SDS011;49182;50.788;7.318;2023-02-21T06:22:15;27.67;;;11.52;;
43124;SDS011;49182;50.788;7.318;2023-02-21T06:24:42;25.55;;;11.57;;
43124;SDS011;49182;50.788;7.318;2023-02-21T06:27:09;25.00;;;11.18;;
43124;SDS011;49182;50.788;7.318;2023-02-21T06:29:37;23.23;;;11.40;;
43124;SDS011;49182;50.788;7.318;2023-02-21T06:32:03;28.88;;;12.48;;
43124;SDS011;49182;50.788;7.318;2023-02-21T06:34:30;22.55;;;11.75;;
43124;SDS011;49182;50.788;7.318;2023-02-21T06:36:57;27.73;;;13.55;;
43124;SDS011;49182;50.788;7.318;2023-02-21T06:39:24;25.88;;;11.93;;
43124;SDS011;49182;50.788;7.318;2023-02-21T06:41:50;28.13;;;12.93;;
43124;SDS011;49182;50.788;7.318;2023-02-21T06:44:17;26.05;;;11.85;;
43124;SDS011;49182;50.788;7.318;2023-02-21T06:46:46;27.38;;;13.25;;
43124;SDS011;49182;50.788;7.318;2023-02-21T06:49:14;24.38;;;12.00;;
43124;SDS011;49182;50.788;7.318;2023-02-21T06:51:41;23.67;;;11.68;;
43124;SDS011;49182;50.788;7.318;2023-02-21T06:54:08;27.17;;;12.38;;
43124;SDS011;49182;50.788;7.318;2023-02-21T06:56:35;23.45;;;11.27;;
43124;SDS011;49182;50.788;7.318;2023-02-21T06:59:03;25.25;;;12.18;;
43124;SDS011;49182;50.788;7.318;2023-02-21T07:01:30;24.30;;;11.13;;
43124;SDS011;49182;50.788;7.318;2023-02-21T07:03:58;24.40;;;13.02;;
43124;SDS011;49182;50.788;7.318;2023-02-21T07:06:25;23.73;;;12.02;;
43124;SDS011;49182;50.788;7.318;2023-02-21T07:08:55;24.67;;;11.93;;
43124;SDS011;49182;50.788;7.318;2023-02-21T07:11:21;24.73;;;12.05;;
43124;SDS011;49182;50.788;7.318;2023-02-21T07:13:48;32.25;;;14.20;;
43124;SDS011;49182;50.788;7.318;2023-02-21T07:16:15;24.65;;;12.75;;
43124;SDS011;49182;50.788;7.318;2023-02-21T07:18:42;26.50;;;12.75;;
43124;SDS011;49182;50.788;7.318;2023-02-21T07:21:10;25.38;;;11.93;;
43124;SDS011;49182;50.788;7.318;2023-02-21T07:23:38;23.40;;;12.52;;
43124;SDS011;49182;50.788;7.318;2023-02-21T07:26:05;27.48;;;12.43;;
43124;SDS011;49182;50.788;7.318;2023-02-21T07:28:32;27.63;;;12.07;;
43124;SDS011;49182;50.788;7.318;2023-02-21T07:30:58;22.48;;;11.63;;
43124;SDS011;49182;50.788;7.318;2023-02-21T07:33:25;23.40;;;11.38;;
43124;SDS011;49182;50.788;7.318;2023-02-21T07:35:51;25.73;;;12.65;;
43124;SDS011;49182;50.788;7.318;2023-02-21T07:38:20;24.17;;;12.57;;
43124;SDS011;49182;50.788;7.318;2023-02-21T07:40:48;24.13;;;11.40;;
43124;SDS011;49182;50.788;7.318;2023-02-21T07:43:15;26.13;;;12.88;;
43124;SDS011;49182;50.788;7.318;2023-02-21T07:45:42;29.80;;;13.63;;
43124;SDS011;49182;50.788;7.318;2023-02-21T07:48:09;28.15;;;14.77;;
43124;SDS011;49182;50.788;7.318;2023-02-21T07:50:36;26.02;;;13.95;;
43124;SDS011;49182;50.788;7.318;2023-02-21T07:53:02;35.47;;;17.77;;
43124;SDS011;49182;50.788;7.318;2023-02-21T07:55:30;34.28;;;17.70;;
43124;SDS011;49182;50.788;7.318;2023-02-21T07:57:57;33.47;;;15.70;;
43124;SDS011;49182;50.788;7.318;2023-02-21T08:00:24;25.98;;;13.93;;
43124;SDS011;49182;50.788;7.318;2023-02-21T08:02:50;27.95;;;13.93;;
43124;SDS011;49182;50.788;7.318;2023-02-21T08:05:18;31.75;;;15.00;;
43124;SDS011;49182;50.788;7.318;2023-02-21T08:07:45;26.48;;;12.77;;
43124;SDS011;49182;50.788;7.318;2023-02-21T08:10:13;29.58;;;14.35;;
43124;SDS011;49182;50.788;7.318;2023-02-21T08:12:46;26.85;;;13.63;;
43124;SDS011;49182;50.788;7.318;2023-02-21T08:15:13;26.92;;;13.65;;
43124;SDS011;49182;50.788;7.318;2023-02-21T08:17:40;26.98;;;13.98;;
43124;SDS011;49182;50.788;7.318;2023-02-21T08:20:07;26.05;;;13.82;;
43124;SDS011;49182;50.788;7.318;2023-02-21T08:22:35;27.23;;;12.90;;
43124;SDS011;49182;50.788;7.318;2023-02-21T08:25:01;28.30;;;14.50;;
43124;SDS011;49182;50.788;7.318;2023-02-21T08:27:28;24.92;;;12.77;;
43124;SDS011;49182;50.788;7.318;2023-02-21T08:29:56;25.38;;;13.35;;
43124;SDS011;49182;50.788;7.318;2023-02-21T08:32:23;25.33;;;12.75;;
43124;SDS011;49182;50.788;7.318;2023-02-21T08:34:50;27.80;;;12.85;;
43124;SDS011;49182;50.788;7.318;2023-02-21T08:37:16;25.17;;;13.32;;
43124;SDS011;49182;50.788;7.318;2023-02-21T08:39:43;29.20;;;13.40;;
43124;SDS011;49182;50.788;7.318;2023-02-21T08:42:10;27.65;;;12.93;;
43124;SDS011;49182;50.788;7.318;2023-02-21T08:44:37;25.40;;;13.00;;
43124;SDS011;49182;50.788;7.318;2023-02-21T08:47:05;24.35;;;12.73;;
43124;SDS011;49182;50.788;7.318;2023-02-21T08:49:32;27.55;;;13.63;;
43124;SDS011;49182;50.788;7.318;2023-02-21T08:51:58;28.83;;;12.32;;
43124;SDS011;49182;50.788;7.318;2023-02-21T08:54:25;28.13;;;13.00;;
43124;SDS011;49182;50.788;7.318;2023-02-21T08:56:52;26.45;;;12.90;;
43124;SDS011;49182;50.788;7.318;2023-02-21T08:59:18;27.13;;;12.73;;
43124;SDS011;49182;50.788;7.318;2023-02-21T09:01:45;27.80;;;12.40;;
43124;SDS011;49182;50.788;7.318;2023-02-21T09:04:13;27.33;;;13.32;;
43124;SDS011;49182;50.788;7.318;2023-02-21T09:06:40;27.02;;;12.60;;
43124;SDS011;49182;50.788;7.318;2023-02-21T09:09:06;28.40;;;12.50;;
43124;SDS011;49182;50.788;7.318;2023-02-21T09:11:33;26.75;;;11.60;;
43124;SDS011;49182;50.788;7.318;2023-02-21T09:14:00;25.52;;;12.05;;
43124;SDS011;49182;50.788;7.318;2023-02-21T09:16:26;27.20;;;12.60;;
43124;SDS011;49182;50.788;7.318;2023-02-21T09:18:54;27.20;;;11.73;;
43124;SDS011;49182;50.788;7.318;2023-02-21T09:21:23;22.15;;;11.63;;
43124;SDS011;49182;50.788;7.318;2023-02-21T09:23:50;22.83;;;10.23;;
43124;SDS011;49182;50.788;7.318;2023-02-21T09:26:18;23.40;;;10.20;;
43124;SDS011;49182;50.788;7.318;2023-02-21T09:28:45;20.63;;;9.05;;
43124;SDS011;49182;50.788;7.318;2023-02-21T09:31:11;19.88;;;9.00;;
43124;SDS011;49182;50.788;7.318;2023-02-21T09:33:38;20.55;;;9.70;;
43124;SDS011;49182;50.788;7.318;2023-02-21T09:36:05;19.80;;;9.20;;
43124;SDS011;49182;50.788;7.318;2023-02-21T09:38:34;17.90;;;8.60;;
43124;SDS011;49182;50.788;7.318;2023-02-21T09:41:03;19.13;;;8.63;;
43124;SDS011;49182;50.788;7.318;2023-02-21T09:43:33;19.47;;;8.90;;
43124;SDS011;49182;50.788;7.318;2023-02-21T09:46:03;21.33;;;9.05;;
43124;SDS011;49182;50.788;7.318;2023-02-21T09:48:33;20.45;;;9.27;;
43124;SDS011;49182;50.788;7.318;2023-02-21T09:51:01;14.90;;;7.57;;
43124;SDS011;49182;50.788;7.318;2023-02-21T09:53:32;18.00;;;8.57;;
43124;SDS011;49182;50.788;7.318;2023-02-21T09:56:03;17.75;;;8.65;;
43124;SDS011;49182;50.788;7.318;2023-02-21T09:58:32;17.23;;;7.97;;
43124;SDS011;49182;50.788;7.318;2023-02-21T10:01:02;17.38;;;8.18;;
43124;SDS011;49182;50.788;7.318;2023-02-21T10:03:39;17.73;;;8.02;;
43124;SDS011;49182;50.788;7.318;2023-02-21T10:06:11;16.75;;;8.40;;
43124;SDS011;49182;50.788;7.318;2023-02-21T10:08:53;18.02;;;8.07;;
43124;SDS011;49182;50.788;7.318;2023-02-21T10:11:29;18.58;;;8.90;;
43124;SDS011;49182;50.788;7.318;2023-02-21T10:14:03;20.38;;;9.30;;
43124;SDS011;49182;50.788;7.318;2023-02-21T10:16:39;20.00;;;9.82;;
43124;SDS011;49182;50.788;7.318;2023-02-21T10:19:12;21.42;;;9.75;;
43124;SDS011;49182;50.788;7.318;2023-02-21T10:21:45;19.13;;;9.45;;
43124;SDS011;49182;50.788;7.318;2023-02-21T10:24:16;19.63;;;9.60;;
43124;SDS011;49182;50.788;7.318;2023-02-21T10:26:45;20.75;;;10.10;;
43124;SDS011;49182;50.788;7.318;2023-02-21T10:29:19;18.90;;;9.18;;
43124;SDS011;49182;50.788;7.318;2023-02-21T10:31:48;18.77;;;8.95;;
43124;SDS011;49182;50.788;7.318;2023-02-21T10:34:22;18.30;;;9.23;;
43124;SDS011;49182;50.788;7.318;2023-02-21T10:36:50;20.13;;;9.35;;
43124;SDS011;49182;50.788;7.318;2023-02-21T10:39:21;18.65;;;9.35;;
43124;SDS011;49182;50.788;7.318;2023-02-21T10:41:52;18.95;;;9.63;;
43124;SDS011;49182;50.788;7.318;2023-02-21T10:44:21;18.63;;;9.95;;
43124;SDS011;49182;50.788;7.318;2023-02-21T10:46:54;18.08;;;10.07;;
43124;SDS011;49182;50.788;7.318;2023-02-21T10:49:27;20.75;;;9.48;;
43124;SDS011;49182;50.788;7.318;2023-02-21T10:52:05;16.38;;;9.40;;
43124;SDS011;49182;50.788;7.318;2023-02-21T10:54:37;20.10;;;9.40;;
43124;SDS011;49182;50.788;7.318;2023-02-21T10:57:05;15.80;;;8.68;;
43124;SDS011;49182;50.788;7.318;2023-02-21T10:59:34;18.63;;;9.23;;
43124;SDS011;49182;50.788;7.318;2023-02-21T11:02:24;17.85;;;9.27;;
43124;SDS011;49182;50.788;7.318;2023-02-21T11:04:55;20.30;;;9.63;;
43124;SDS011;49182;50.788;7.318;2023-02-21T11:07:33;18.58;;;9.55;;
43124;SDS011;49182;50.788;7.318;2023-02-21T11:10:02;17.00;;;9.35;;
43124;SDS011;49182;50.788;7.318;2023-02-21T11:13:06;18.23;;;8.93;;
43124;SDS011;49182;50.788;7.318;2023-02-21T11:15:39;18.73;;;9.10;;
43124;SDS011;49182;50.788;7.318;2023-02-21T11:18:13;17.00;;;8.70;;
43124;SDS011;49182;50.788;7.318;2023-02-21T11:20:42;18.75;;;9.05;;
43124;SDS011;49182;50.788;7.318;2023-02-21T11:23:17;17.85;;;8.82;;
43124;SDS011;49182;50.788;7.318;2023-02-21T11:25:47;15.13;;;8.40;;
43124;SDS011;49182;50.788;7.318;2023-02-21T11:28:16;17.73;;;8.80;;
43124;SDS011;49182;50.788;7.318;2023-02-21T11:30:46;17.88;;;9.05;;
43124;SDS011;49182;50.788;7.318;2023-02-21T11:33:17;17.45;;;8.18;;
43124;SDS011;49182;50.788;7.318;2023-02-21T11:35:46;16.88;;;8.98;;
43124;SDS011;49182;50.788;7.318;2023-02-21T11:41:15;17.73;;;7.90;;
43124;SDS011;49182;50.788;7.318;2023-02-21T11:43:47;17.02;;;8.20;;
43124;SDS011;49182;50.788;7.318;2023-02-21T11:46:16;19.65;;;8.55;;
43124;SDS011;49182;50.788;7.318;2023-02-21T11:48:49;17.83;;;8.80;;
43124;SDS011;49182;50.788;7.318;2023-02-21T11:51:25;19.67;;;8.68;;
43124;SDS011;49182;50.788;7.318;2023-02-21T11:53:56;18.30;;;8.52;;
43124;SDS011;49182;50.788;7.318;2023-02-21T11:56:38;16.75;;;8.88;;
43124;SDS011;49182;50.788;7.318;2023-02-21T11:59:12;19.08;;;8.88;;
43124;SDS011;49182;50.788;7.318;2023-02-21T12:01:49;15.63;;;8.07;;
43124;SDS011;49182;50.788;7.318;2023-02-21T12:04:40;17.77;;;8.60;;
43124;SDS011;49182;50.788;7.318;2023-02-21T12:07:20;16.15;;;8.10;;
43124;SDS011;49182;50.788;7.318;2023-02-21T12:09:55;16.50;;;8.20;;
43124;SDS011;49182;50.788;7.318;2023-02-21T12:12:35;15.18;;;7.85;;
43124;SDS011;49182;50.788;7.318;2023-02-21T12:15:16;15.60;;;8.45;;
43124;SDS011;49182;50.788;7.318;2023-02-21T12:17:51;15.48;;;8.45;;
43124;SDS011;49182;50.788;7.318;2023-02-21T12:23:30;15.88;;;7.95;;
43124;SDS011;49182;50.788;7.318;2023-02-21T12:26:14;16.02;;;8.13;;
43124;SDS011;49182;50.788;7.318;2023-02-21T12:28:56;19.27;;;7.88;;
43124;SDS011;49182;50.788;7.318;2023-02-21T12:31:36;15.00;;;8.27;;
43124;SDS011;49182;50.788;7.318;2023-02-21T12:34:17;16.27;;;8.13;;
43124;SDS011;49182;50.788;7.318;2023-02-21T12:37:03;15.02;;;7.63;;
43124;SDS011;49182;50.788;7.318;2023-02-21T12:39:45;17.13;;;7.50;;
43124;SDS011;49182;50.788;7.318;2023-02-21T12:42:26;14.95;;;8.07;;
43124;SDS011;49182;50.788;7.318;2023-02-21T12:45:12;14.70;;;7.60;;
43124;SDS011;49182;50.788;7.318;2023-02-21T12:47:50;17.08;;;8.13;;
43124;SDS011;49182;50.788;7.318;2023-02-21T12:50:21;14.23;;;7.53;;
43124;SDS011;49182;50.788;7.318;2023-02-21T12:52:52;14.88;;;8.70;;
43124;SDS011;49182;50.788;7.318;2023-02-21T12:55:23;16.50;;;8.10;;
43124;SDS011;49182;50.788;7.318;2023-02-21T12:57:52;15.50;;;7.97;;
43124;SDS011;49182;50.788;7.318;2023-02-21T13:00:25;14.80;;;8.38;;
43124;SDS011;49182;50.788;7.318;2023-02-21T13:02:58;16.15;;;7.93;;
43124;SDS011;49182;50.788;7.318;2023-02-21T13:05:32;16.58;;;8.00;;
43124;SDS011;49182;50.788;7.318;2023-02-21T13:08:05;16.13;;;7.45;;
43124;SDS011;49182;50.788;7.318;2023-02-21T13:10:42;15.73;;;7.85;;
43124;SDS011;49182;50.788;7.318;2023-02-21T13:13:17;15.52;;;7.88;;
43124;SDS011;49182;50.788;7.318;2023-02-21T13:15:47;16.00;;;7.45;;
43124;SDS011;49182;50.788;7.318;2023-02-21T13:18:15;14.10;;;7.78;;
43124;SDS011;49182;50.788;7.318;2023-02-21T13:20:47;13.57;;;6.88;;
43124;SDS011;49182;50.788;7.318;2023-02-21T13:23:21;13.43;;;7.22;;
43124;SDS011;49182;50.788;7.318;2023-02-21T13:26:12;14.52;;;7.15;;
43124;SDS011;49182;50.788;7.318;2023-02-21T13:28:54;16.23;;;8.10;;
43124;SDS011;49182;50.788;7.318;2023-02-21T13:31:24;12.63;;;6.72;;
43124;SDS011;49182;50.788;7.318;2023-02-21T13:33:53;15.70;;;7.28;;
43124;SDS011;49182;50.788;7.318;2023-02-21T13:36:24;13.98;;;6.63;;
43124;SDS011;49182;50.788;7.318;2023-02-21T13:38:57;11.68;;;7.25;;
43124;SDS011;49182;50.788;7.318;2023-02-21T13:41:27;13.38;;;7.20;;
43124;SDS011;49182;50.788;7.318;2023-02-21T13:43:58;13.82;;;7.38;;
43124;SDS011;49182;50.788;7.318;2023-02-21T13:49:40;12.93;;;6.85;;
43124;SDS011;49182;50.788;7.318;2023-02-21T13:52:13;14.63;;;7.25;;
43124;SDS011;49182;50.788;7.318;2023-02-21T13:57:49;11.32;;;6.30;;
43124;SDS011;49182;50.788;7.318;2023-02-21T14:00:45;12.90;;;6.47;;
43124;SDS011;49182;50.788;7.318;2023-02-21T14:09:08;12.23;;;6.72;;
43124;SDS011;49182;50.788;7.318;2023-02-21T14:11:42;12.07;;;6.10;;
43124;SDS011;49182;50.788;7.318;2023-02-21T14:14:19;12.98;;;6.88;;
43124;SDS011;49182;50.788;7.318;2023-02-21T14:16:52;12.23;;;6.30;;
43124;SDS011;49182;50.788;7.318;2023-02-21T14:19:25;12.18;;;6.68;;
43124;SDS011;49182;50.788;7.318;2023-02-21T14:21:59;13.60;;;5.95;;
43124;SDS011;49182;50.788;7.318;2023-02-21T14:24:29;11.05;;;5.75;;
43124;SDS011;49182;50.788;7.318;2023-02-21T14:27:00;12.88;;;6.25;;
43124;SDS011;49182;50.788;7.318;2023-02-21T14:29:30;13.55;;;6.47;;
43124;SDS011;49182;50.788;7.318;2023-02-21T14:34:54;12.33;;;7.13;;
43124;SDS011;49182;50.788;7.318;2023-02-21T14:37:25;12.20;;;6.70;;
43124;SDS011;49182;50.788;7.318;2023-02-21T14:40:02;11.90;;;6.55;;
43124;SDS011;49182;50.788;7.318;2023-02-21T14:42:51;11.23;;;6.30;;
43124;SDS011;49182;50.788;7.318;2023-02-21T14:45:38;11.75;;;5.90;;
43124;SDS011;49182;50.788;7.318;2023-02-21T14:48:22;12.90;;;6.35;;
43124;SDS011;49182;50.788;7.318;2023-02-21T14:51:06;12.07;;;6.57;;
43124;SDS011;49182;50.788;7.318;2023-02-21T14:54:04;11.75;;;6.10;;
43124;SDS011;49182;50.788;7.318;2023-02-21T14:57:02;11.00;;;5.63;;
43124;SDS011;49182;50.788;7.318;2023-02-21T14:59:51;11.52;;;5.60;;
43124;SDS011;49182;50.788;7.318;2023-02-21T15:02:29;11.18;;;5.50;;
43124;SDS011;49182;50.788;7.318;2023-02-21T15:05:04;10.40;;;5.13;;
43124;SDS011;49182;50.788;7.318;2023-02-21T15:07:44;10.32;;;5.28;;
43124;SDS011;49182;50.788;7.318;2023-02-21T15:10:21;18.70;;;6.43;;
43124;SDS011;49182;50.788;7.318;2023-02-21T15:12:50;12.25;;;5.93;;
43124;SDS011;49182;50.788;7.318;2023-02-21T15:15:20;12.43;;;5.13;;
43124;SDS011;49182;50.788;7.318;2023-02-21T15:17:57;10.80;;;5.63;;
43124;SDS011;49182;50.788;7.318;2023-02-21T15:20:30;11.82;;;5.43;;